Turley, Oklahoma
Current Conditions -  °F | °C
As of 6:15 PM on Sunday 25 Jan 2015 (Local Time) from KOWP Reporting Station
Scattered Clouds Scattered Clouds  
Wind Chill: 50°   Ceiling: Unl
Heat Index: 50°   Visibility: 10mi
Dew Point: 31°   Wind: 10mph
Humidity: 47%   Direction: 330°NNW
Pressure: 30.08"   Gusts: 20mph
Location:  36.2544°N, 96.0492°W
Report Text: KOWP 260015Z AUTO 33009G17KT 10SM SCT046 10/M01 A3008 RMK AO2 T01021006
Loading
Personal Weather Stations






























Interactive Weather Map New forecast layout! Learn more

10-Day Weather Forecast

Advertisements
Track Severe Weather on mobile